Terminal Aerodrome Forecast
Issued by NWS Charleston, WV

Home | Current Version | Previous Version | Text Only | Print | Product List | Glossary On
Versions: 1 2 3 4 5 6 7 8 9 10 11 12 13 14 15 16 17 18 19 20 21 22 23 24 25 26
000
FTUS41 KRLX 210500 RRA
TAFEKN
TAF
KEKN 210545Z 2106/2206 00000KT 2SM BR SCT001
      TEMPO 2106/2109 1/4SM FG VV001
     FM210900 21004KT 1/4SM FG VV001
      TEMPO 2109/2112 3SM BR SCT002 SCT020
     FM211200 24007KT 6SM BR BKN025
     FM211400 25008KT 6SM SHRA BR VCTS BKN025CB
     FM212000 25010G15KT 6SM TSRA BR BKN025CB
     FM212200 26010KT 6SM SHRA BR VCTS BKN025CB
     FM220100 28008KT 6SM BR BKN025=

USA.gov is the U.S. government's official web portal to all federal, state and local government web resources and services.